createdAt,value
2019-04-06T00:06:19.252Z,10.88
2019-04-06T00:16:24.244Z,10.75
2019-04-06T00:26:28.149Z,10.56
2019-04-06T00:36:33.328Z,10.31
2019-04-06T00:46:38.294Z,10.38
2019-04-06T00:56:42.232Z,10.13
2019-04-06T01:06:46.658Z,10.06
2019-04-06T01:16:50.281Z,10.00
2019-04-06T01:26:54.992Z,9.69
2019-04-06T01:36:59.708Z,9.81
2019-04-06T01:47:03.238Z,9.69
2019-04-06T01:57:07.707Z,9.50
2019-04-06T02:07:12.313Z,9.38
2019-04-06T02:17:16.276Z,9.31
2019-04-06T02:27:20.229Z,9.00
2019-04-06T02:37:32.711Z,9.06
2019-04-06T02:47:38.400Z,9.06
2019-04-06T02:57:42.213Z,8.88
2019-04-06T03:07:47.486Z,8.75
2019-04-06T03:17:51.288Z,8.75
2019-04-06T03:27:55.124Z,8.69
2019-04-06T03:37:59.256Z,8.56
2019-04-06T03:48:04.117Z,8.38
2019-04-06T03:58:08.112Z,8.38
2019-04-06T04:08:12.715Z,8.50
2019-04-06T04:18:17.263Z,8.50
2019-04-06T04:28:22.121Z,8.69
2019-04-06T04:38:26.636Z,8.50
2019-04-06T04:48:30.235Z,8.69
2019-04-06T04:58:34.109Z,8.75
2019-04-06T05:08:38.641Z,8.94
2019-04-06T05:18:42.612Z,8.88
2019-04-06T05:28:46.211Z,9.13
2019-04-06T05:38:50.149Z,9.31
2019-04-06T05:48:54.121Z,9.50
2019-04-06T05:58:59.208Z,9.44
2019-04-06T06:09:03.171Z,10.00
2019-04-06T06:19:07.959Z,10.38
2019-04-06T06:29:12.636Z,10.44
2019-04-06T06:39:16.260Z,10.63
2019-04-06T06:49:20.087Z,11.06
2019-04-06T06:59:24.102Z,11.19
2019-04-06T07:09:28.624Z,11.63
2019-04-06T07:19:32.216Z,12.00
2019-04-06T07:29:36.107Z,12.25
2019-04-06T07:39:40.061Z,12.44
2019-04-06T07:49:46.381Z,12.63
2019-04-06T07:59:51.679Z,13.13
2019-04-06T08:09:56.350Z,13.44
2019-04-06T08:20:00.106Z,13.81
2019-04-06T08:35:44.136Z,14.63
2019-04-06T08:45:48.684Z,15.13
2019-04-06T08:55:53.330Z,15.75
2019-04-06T09:05:57.144Z,16.25
2019-04-06T09:16:03.862Z,16.87
2019-04-06T09:26:09.265Z,17.62
2019-04-06T09:36:13.177Z,18.00
2019-04-06T09:46:25.384Z,18.62
2019-04-06T09:56:47.084Z,18.81
2019-04-06T10:07:09.299Z,19.44
2019-04-06T10:17:22.675Z,19.69
2019-04-06T10:27:45.269Z,20.06
2019-04-06T10:37:54.135Z,20.25
2019-04-06T10:48:20.137Z,20.44
2019-04-06T10:58:38.543Z,20.88
2019-04-06T11:08:52.259Z,21.69
2019-04-06T11:19:01.464Z,22.19
2019-04-06T11:29:22.338Z,22.37
2019-04-06T11:39:27.689Z,22.81
2019-04-06T11:49:40.509Z,22.81
2019-04-06T11:59:50.122Z,23.44
2019-04-06T12:09:55.578Z,23.87
2019-04-06T12:20:10.096Z,23.87
2019-04-06T12:30:38.484Z,24.44
2019-04-06T12:40:43.606Z,24.00
2019-04-06T12:50:59.341Z,25.31
2019-04-06T13:01:11.094Z,28.06
2019-04-06T13:11:34.514Z,30.31
2019-04-06T13:21:58.538Z,32.25
2019-04-06T13:32:07.315Z,29.69
2019-04-06T13:42:22.137Z,28.19
2019-04-06T13:52:34.417Z,29.87
2019-04-06T14:02:39.513Z,28.50
2019-04-06T14:12:44.429Z,26.25
2019-04-06T14:23:08.385Z,26.06
2019-04-06T14:33:23.281Z,27.50
2019-04-06T14:43:28.380Z,26.87
2019-04-06T14:53:34.093Z,26.31
2019-04-06T15:03:56.248Z,25.50
2019-04-06T15:14:01.557Z,24.94
2019-04-06T15:24:16.325Z,23.75
2019-04-06T15:34:23.033Z,23.31
2019-04-06T15:44:34.990Z,22.94
2019-04-06T15:54:47.465Z,22.00
2019-04-06T16:05:10.101Z,21.31
2019-04-06T16:15:22.362Z,20.81
2019-04-06T16:25:43.301Z,20.25
2019-04-06T16:36:09.674Z,19.19
2019-04-06T16:46:35.045Z,19.06
2019-04-06T16:56:47.391Z,18.94
2019-04-06T17:06:52.569Z,18.50
2019-04-06T17:17:17.827Z,18.19
2019-04-06T17:27:40.712Z,17.69
2019-04-06T17:38:11.603Z,17.44
2019-04-06T17:48:27.252Z,17.06
2019-04-06T18:09:23.421Z,16.75
2019-04-06T18:19:29.801Z,16.12
2019-04-06T18:29:51.860Z,15.88
2019-04-06T18:39:58.442Z,15.94
2019-04-06T18:50:33.286Z,15.69
2019-04-06T19:00:32.121Z,15.63
2019-04-06T19:10:37.255Z,15.56
2019-04-06T19:20:56.510Z,15.00
2019-04-06T19:31:01.306Z,14.87
2019-04-06T19:51:42.371Z,14.38
2019-04-06T20:01:46.151Z,14.13
2019-04-06T20:12:10.357Z,14.13
2019-04-06T20:22:29.869Z,14.06
2019-04-06T20:32:35.592Z,13.88
2019-04-06T20:42:40.424Z,13.25
2019-04-06T20:52:45.321Z,13.38
2019-04-06T21:02:49.249Z,12.88
2019-04-06T21:12:54.308Z,12.75
2019-04-06T21:23:15.550Z,12.75
2019-04-06T21:33:27.576Z,12.63
2019-04-06T21:43:41.420Z,12.50
2019-04-06T21:53:46.753Z,12.37
2019-04-06T22:04:23.078Z,12.00
2019-04-06T22:14:28.352Z,11.81
2019-04-06T22:24:32.793Z,12.19
2019-04-06T22:34:42.660Z,11.94
2019-04-06T22:44:47.649Z,11.81
2019-04-06T22:54:52.666Z,11.56
2019-04-06T23:04:58.217Z,11.63
2019-04-06T23:15:02.227Z,11.50
2019-04-06T23:25:07.222Z,11.31
2019-04-06T23:35:12.902Z,11.00
2019-04-06T23:45:17.711Z,11.00
2019-04-06T23:55:23.237Z,10.63
